Time;durP1;ratioP1;P1;durP2;ratioP2;P2;SDS_P1;SDS_P2;PMS_P1;PMS_P2;Temp;Humidity;BMP_temperature;BMP_pressure;BME280_temperature;BME280_humidity;BME280_pressure;Samples;Min_cycle;Max_cycle;Signal;HPM_P1;HPM_P2
2021/08/01 00:01:48;;;;;;;6.60;4.80;;;;;;;23.13;59.94;98988.16;1768953;79;21514;-53
2021/08/01 00:04:14;;;;;;;5.17;4.87;;;;;;;23.12;60.04;98991.94;1740995;80;20915;-53
2021/08/01 00:06:40;;;;;;;6.47;5.87;;;;;;;23.12;60.13;98999.31;1735987;81;20962;-52
2021/08/01 00:09:08;;;;;;;6.58;5.92;;;;;;;23.11;60.24;98993.47;1738474;81;21106;-53
2021/08/01 00:11:34;;;;;;;8.83;5.50;;;;;;;23.09;60.46;98993.64;1734115;81;20895;-52
2021/08/01 00:14:01;;;;;;;8.83;5.55;;;;;;;23.08;60.47;98993.30;1734752;81;21562;-53
2021/08/01 00:16:27;;;;;;;9.43;5.97;;;;;;;23.05;60.47;98990.91;1738731;81;21497;-52
2021/08/01 00:18:56;;;;;;;12.20;5.42;;;;;;;23.02;60.56;98998.11;1735535;81;21085;-53
2021/08/01 00:21:23;;;;;;;7.87;5.72;;;;;;;22.99;60.64;98995.18;1739140;80;21121;-53
2021/08/01 00:23:49;;;;;;;10.58;5.97;;;;;;;22.96;60.72;98994.69;1750815;80;21069;-53
2021/08/01 00:26:15;;;;;;;5.12;3.90;;;;;;;22.94;60.77;98998.10;1738258;80;21069;-53
2021/08/01 00:28:41;;;;;;;7.08;4.87;;;;;;;22.92;60.94;98997.41;1741719;81;21084;-55
2021/08/01 00:31:08;;;;;;;5.62;4.67;;;;;;;22.90;61.07;98991.22;1742488;81;21513;-53
2021/08/01 00:33:34;;;;;;;9.45;6.08;;;;;;;22.89;61.21;98994.99;1739796;81;21232;-53
2021/08/01 00:36:01;;;;;;;10.43;6.45;;;;;;;22.87;61.43;98995.19;1737571;80;21171;-52
2021/08/01 00:38:27;;;;;;;17.48;6.45;;;;;;;22.85;61.53;99002.73;1742001;81;21502;-53
2021/08/01 00:40:53;;;;;;;6.42;5.78;;;;;;;22.84;61.94;98994.66;1740380;81;21050;-53
2021/08/01 00:43:20;;;;;;;15.30;7.42;;;;;;;22.82;61.88;98991.22;1739757;81;21065;-52
2021/08/01 00:45:46;;;;;;;12.55;5.33;;;;;;;22.77;61.89;98982.66;1743600;81;21088;-53
2021/08/01 00:48:13;;;;;;;5.95;5.28;;;;;;;22.74;62.08;98981.09;1740737;81;21017;-53
2021/08/01 00:50:43;;;;;;;7.28;5.72;;;;;;;22.71;61.90;98981.94;1713127;81;21066;-54
2021/08/01 00:53:10;;;;;;;8.10;4.90;;;;;;;22.68;62.11;98985.01;1741773;81;21124;-54
2021/08/01 00:55:40;;;;;;;17.15;6.22;;;;;;;22.65;62.25;98987.56;1738849;81;21526;-51
2021/08/01 00:58:08;;;;;;;9.48;5.50;;;;;;;22.64;62.52;98995.45;1740555;81;21201;-54
2021/08/01 01:03:17;;;;;;;9.18;5.35;;;;;;;22.61;62.97;99006.77;1733704;81;21106;-52
2021/08/01 01:06:00;;;;;;;5.25;4.85;;;;;;;22.57;63.36;99004.87;1731264;81;21065;-53
2021/08/01 01:08:40;;;;;;;5.90;5.10;;;;;;;22.54;63.07;99005.19;1732683;81;21069;-52
2021/08/01 01:11:19;;;;;;;5.62;5.22;;;;;;;22.49;62.97;98995.25;1665300;84;21155;-54
2021/08/01 01:13:49;;;;;;;5.53;5.03;;;;;;;22.45;62.91;98998.00;1730399;81;21775;-52
2021/08/01 01:16:18;;;;;;;5.85;5.30;;;;;;;22.43;63.07;98997.81;1705909;81;21474;-54
2021/08/01 01:18:49;;;;;;;6.08;5.58;;;;;;;22.39;63.18;99000.52;1730195;81;22413;-54
2021/08/01 01:21:40;;;;;;;5.17;4.33;;;;;;;22.34;63.36;98991.95;1731186;81;21076;-54
2021/08/01 01:24:17;;;;;;;5.00;4.60;;;;;;;22.29;63.41;98986.95;1732894;81;21175;-52
2021/08/01 01:27:06;;;;;;;5.70;4.58;;;;;;;22.29;63.69;98986.13;1731536;81;21053;-52
2021/08/01 01:30:00;;;;;;;5.40;4.85;;;;;;;22.26;63.75;98983.20;1731967;81;21571;-55
2021/08/01 01:32:39;;;;;;;5.92;5.30;;;;;;;22.25;63.88;98986.96;1733445;81;21082;-52
2021/08/01 01:35:17;;;;;;;6.05;5.55;;;;;;;22.24;63.93;98978.39;1733595;81;21462;-52
2021/08/01 01:37:51;;;;;;;5.97;5.42;;;;;;;22.22;64.18;98982.66;1726323;81;21401;-53
2021/08/01 01:40:25;;;;;;;7.97;6.22;;;;;;;22.20;64.19;98983.33;1713151;81;21645;-55
2021/08/01 01:42:58;;;;;;;5.97;5.62;;;;;;;22.17;64.21;98973.23;1730893;81;24962;-54
2021/08/01 01:45:26;;;;;;;6.25;5.03;;;;;;;22.15;64.36;98973.90;1732789;81;21073;-55
2021/08/01 01:47:53;;;;;;;4.47;4.05;;;;;;;22.14;64.41;98966.70;1734709;81;21079;-55
2021/08/01 01:50:21;;;;;;;5.08;4.67;;;;;;;22.13;64.53;98963.61;1729740;81;21210;-54
2021/08/01 01:52:49;;;;;;;6.37;5.78;;;;;;;22.14;64.57;98959.84;1729969;81;21134;-55
2021/08/01 01:55:20;;;;;;;4.97;4.50;;;;;;;22.12;64.65;98946.30;1730740;81;21110;-54
2021/08/01 01:57:50;;;;;;;8.48;4.92;;;;;;;22.11;64.74;98951.47;1732504;81;21034;-54
2021/08/01 02:00:18;;;;;;;7.40;5.55;;;;;;;22.10;64.83;98952.48;1731396;81;21368;-54
2021/08/01 02:02:44;;;;;;;5.60;5.08;;;;;;;22.10;64.89;98954.37;1729727;81;21033;-52
2021/08/01 02:05:12;;;;;;;6.00;5.50;;;;;;;22.07;65.16;98954.69;1723528;81;21300;-53
2021/08/01 02:07:41;;;;;;;7.12;4.33;;;;;;;22.02;65.21;98949.72;1687072;81;21088;-52
2021/08/01 02:10:26;;;;;;;5.83;5.33;;;;;;;22.00;65.39;98950.90;1724131;81;21588;-52
2021/08/01 02:12:56;;;;;;;5.15;4.65;;;;;;;21.99;65.68;98952.78;1744365;80;21600;-52
2021/08/01 02:15:31;;;;;;;4.47;4.10;;;;;;;21.99;65.84;98945.93;1712971;81;21359;-52
2021/08/01 02:18:02;;;;;;;4.20;3.80;;;;;;;22.00;65.92;98948.16;1749918;80;22104;-52
2021/08/01 02:20:43;;;;;;;9.60;5.42;;;;;;;22.01;65.92;98949.87;1718726;81;20998;-52
2021/08/01 02:23:17;;;;;;;5.28;4.87;;;;;;;22.01;65.95;98947.14;1715347;81;21048;-51
2021/08/01 02:25:45;;;;;;;5.95;5.50;;;;;;;22.00;66.05;98946.28;1746770;80;20969;-52
2021/08/01 02:28:11;;;;;;;6.40;5.40;;;;;;;21.99;66.12;98945.93;1747970;81;21173;-52
2021/08/01 02:30:38;;;;;;;8.20;4.90;;;;;;;21.98;66.22;98943.34;1746984;80;20887;-52
2021/08/01 02:33:05;;;;;;;5.47;4.35;;;;;;;21.96;66.30;98936.63;1718760;81;21030;-53
2021/08/01 02:35:32;;;;;;;4.25;3.92;;;;;;;21.95;66.40;98934.91;1750265;80;20983;-54
2021/08/01 02:37:59;;;;;;;4.55;4.08;;;;;;;21.95;66.48;98940.39;1688866;81;20997;-51
2021/08/01 02:40:29;;;;;;;4.40;4.00;;;;;;;21.96;66.55;98935.77;1746133;80;22072;-54
2021/08/01 02:42:55;;;;;;;5.47;4.75;;;;;;;21.96;66.67;98941.25;1712148;81;21795;-53
2021/08/01 02:45:22;;;;;;;4.50;4.17;;;;;;;21.95;66.77;98947.23;1748358;80;21578;-54
2021/08/01 02:47:49;;;;;;;5.15;4.25;;;;;;;21.96;66.90;98943.48;1749227;80;20926;-53
2021/08/01 02:50:18;;;;;;;5.17;4.37;;;;;;;21.95;67.10;98945.04;1673414;82;21522;-53
2021/08/01 02:52:54;;;;;;;8.20;6.60;;;;;;;21.96;67.17;98946.73;1721604;81;22244;-52
2021/08/01 02:55:22;;;;;;;6.00;5.70;;;;;;;21.94;66.98;98946.06;1748358;80;21360;-52
2021/08/01 02:57:49;;;;;;;4.60;4.30;;;;;;;21.88;66.90;98953.89;1748562;80;20871;-53
2021/08/01 03:00:15;;;;;;;4.90;4.50;;;;;;;21.86;67.18;98953.73;1745708;80;20948;-54
2021/08/01 03:02:42;;;;;;;7.05;4.47;;;;;;;21.81;67.32;98967.91;1750318;80;21492;-52
2021/08/01 03:05:10;;;;;;;8.50;4.55;;;;;;;21.79;67.62;98967.20;1727507;81;21551;-53
2021/08/01 03:07:38;;;;;;;5.00;3.50;;;;;;;21.75;67.80;98964.97;1733511;81;22138;-51
2021/08/01 03:10:06;;;;;;;6.53;4.85;;;;;;;21.72;68.06;98970.77;1767283;79;21303;-52
2021/08/01 03:12:32;;;;;;;7.53;5.67;;;;;;;21.68;68.16;98972.99;1764910;79;21191;-52
2021/08/01 03:14:59;;;;;;;7.53;4.87;;;;;;;21.65;68.33;98976.55;1732774;80;21737;-53
2021/08/01 03:17:27;;;;;;;8.58;5.25;;;;;;;21.60;68.54;98974.32;1715112;81;21197;-54
2021/08/01 03:19:55;;;;;;;6.10;5.22;;;;;;;21.56;68.71;98975.65;1743140;81;21080;-54
2021/08/01 03:22:23;;;;;;;4.85;4.40;;;;;;;21.53;68.80;98974.09;1740765;81;21085;-52
2021/08/01 03:24:50;;;;;;;5.78;4.30;;;;;;;21.52;69.12;98981.95;1738042;81;21094;-53
2021/08/01 03:27:19;;;;;;;4.78;4.47;;;;;;;21.55;69.18;98984.88;1738841;81;21041;-51
2021/08/01 03:29:46;;;;;;;6.30;4.78;;;;;;;21.57;69.33;98980.62;1718249;81;21600;-53
2021/08/01 03:32:14;;;;;;;7.70;5.12;;;;;;;21.58;69.40;98976.86;1740738;81;21150;-51
2021/08/01 03:34:41;;;;;;;5.53;5.17;;;;;;;21.61;69.43;98985.59;1738550;81;21119;-54
2021/08/01 03:37:08;;;;;;;5.47;5.03;;;;;;;21.63;69.36;98975.85;1737317;81;21406;-53
2021/08/01 03:39:52;;;;;;;6.15;5.55;;;;;;;21.66;69.51;98983.75;1651481;85;21104;-53
2021/08/01 03:42:20;;;;;;;6.95;4.85;;;;;;;21.69;69.65;98993.03;1710788;81;21765;-53
2021/08/01 03:44:47;;;;;;;5.50;5.00;;;;;;;21.72;70.00;98989.94;1742462;81;21025;-53
2021/08/01 03:47:14;;;;;;;5.05;4.03;;;;;;;21.74;70.42;98992.88;1744811;80;21025;-50
2021/08/01 03:49:43;;;;;;;5.15;4.80;;;;;;;21.75;70.06;99000.08;1737389;81;21132;-52
2021/08/01 03:52:12;;;;;;;5.12;4.60;;;;;;;21.77;69.95;98994.44;1741863;81;21347;-51
2021/08/01 03:54:39;;;;;;;4.67;4.35;;;;;;;21.80;69.75;99000.43;1740258;81;21812;-52
2021/08/01 03:57:05;;;;;;;4.70;4.40;;;;;;;;;;1744275;81;21057;-53
2021/08/01 03:59:35;;;;;;;5.28;4.58;;;;;;;21.89;70.16;99004.07;1741095;81;21052;-51
2021/08/01 04:02:03;;;;;;;7.40;5.90;;;;;;;21.94;70.45;99011.81;1738963;81;21511;-54
2021/08/01 04:04:29;;;;;;;5.47;4.97;;;;;;;21.98;70.74;99019.56;1746709;80;21110;-53
2021/08/01 04:06:55;;;;;;;4.83;4.50;;;;;;;22.00;70.77;99023.52;1750795;80;22904;-51
2021/08/01 04:09:22;;;;;;;6.28;5.47;;;;;;;22.01;70.82;99011.53;1747262;80;21092;-51
2021/08/01 04:11:49;;;;;;;6.15;5.22;;;;;;;22.05;70.75;99017.02;1748596;80;21028;-53
2021/08/01 04:14:15;;;;;;;6.20;5.72;;;;;;;22.07;70.45;99015.84;1748338;80;21088;-53
2021/08/01 04:16:42;;;;;;;5.80;5.30;;;;;;;22.09;70.05;99014.31;1751567;80;21061;-52
2021/08/01 04:19:10;;;;;;;6.80;5.33;;;;;;;22.11;69.90;99015.88;1746975;80;21828;-52
2021/08/01 04:21:38;;;;;;;6.55;6.15;;;;;;;22.15;69.86;99019.13;1749493;80;21089;-53
2021/08/01 04:24:05;;;;;;;7.33;6.83;;;;;;;22.19;69.84;99016.41;1737666;80;21143;-52
2021/08/01 04:26:31;;;;;;;8.45;7.55;;;;;;;22.22;69.50;99016.92;1737123;81;21398;-52
2021/08/01 04:28:58;;;;;;;6.70;6.20;;;;;;;22.26;69.33;99021.58;1764124;79;21585;-52
2021/08/01 04:31:26;;;;;;;7.42;6.33;;;;;;;22.31;69.12;99023.81;1750154;80;21249;-52
2021/08/01 04:33:52;;;;;;;5.35;5.05;;;;;;;22.36;69.02;99018.70;1747800;80;21052;-54
2021/08/01 04:36:18;;;;;;;6.17;5.75;;;;;;;22.43;69.07;99022.48;1750529;80;21499;-52
2021/08/01 04:38:45;;;;;;;7.53;6.17;;;;;;;22.50;69.14;99016.68;1747637;80;21713;-54
2021/08/01 04:41:11;;;;;;;7.20;6.60;;;;;;;22.58;68.97;99023.05;1749531;80;21061;-54
2021/08/01 04:43:38;;;;;;;9.38;7.37;;;;;;;22.68;68.96;99017.41;1751182;81;21092;-52
2021/08/01 04:46:04;;;;;;;8.05;7.25;;;;;;;22.77;68.85;99015.58;1750717;80;21065;-52
2021/08/01 04:48:30;;;;;;;7.42;6.83;;;;;;;22.87;68.84;99021.77;1753021;80;22131;-52
2021/08/01 04:50:57;;;;;;;7.45;6.25;;;;;;;22.95;68.73;99014.41;1750616;80;21042;-52
2021/08/01 04:53:23;;;;;;;8.53;6.25;;;;;;;23.04;68.61;99008.41;1748881;80;21093;-54
2021/08/01 04:55:50;;;;;;;6.78;6.12;;;;;;;23.12;68.22;99004.80;1747497;80;21147;-55
2021/08/01 04:58:16;;;;;;;6.45;5.90;;;;;;;23.21;68.17;99001.03;1752096;80;21561;-55
2021/08/01 05:00:42;;;;;;;7.50;6.15;;;;;;;23.28;67.83;98997.93;1751575;80;21068;-53
2021/08/01 05:03:09;;;;;;;7.62;6.95;;;;;;;23.35;67.74;98998.44;1749040;80;21075;-53
2021/08/01 05:05:39;;;;;;;6.62;6.03;;;;;;;23.43;67.63;99000.83;1742128;80;21104;-52
2021/08/01 05:08:04;;;;;;;7.42;6.75;;;;;;;23.52;67.46;98997.07;1739116;81;22421;-52
2021/08/01 05:10:30;;;;;;;11.20;6.70;;;;;;;23.61;67.45;98995.51;1742701;81;21109;-54
2021/08/01 05:12:57;;;;;;;5.62;5.15;;;;;;;23.71;67.22;98992.57;1738520;81;21546;-54
2021/08/01 05:15:25;;;;;;;7.42;6.10;;;;;;;23.81;67.03;98987.74;1735468;81;21042;-53
2021/08/01 05:17:51;;;;;;;5.83;5.33;;;;;;;23.91;66.73;98982.02;1740690;80;21120;-54
2021/08/01 05:20:18;;;;;;;5.53;5.12;;;;;;;23.99;66.59;98986.11;1744479;81;22103;-53
2021/08/01 05:22:44;;;;;;;5.00;4.22;;;;;;;24.09;66.48;98987.62;1743114;81;21672;-54
2021/08/01 05:25:11;;;;;;;4.15;3.85;;;;;;;24.20;66.41;98980.88;1738433;81;21138;-53
2021/08/01 05:27:37;;;;;;;5.35;4.65;;;;;;;24.31;66.39;98987.91;1739965;81;21144;-53
2021/08/01 05:30:04;;;;;;;5.50;4.70;;;;;;;24.40;66.01;98984.94;1736333;81;21069;-54
2021/08/01 05:32:34;;;;;;;8.65;4.85;;;;;;;24.51;65.70;98982.27;1738938;81;21165;-55
2021/08/01 05:35:00;;;;;;;4.65;4.30;;;;;;;24.61;65.16;98980.16;1738444;81;21120;-53
2021/08/01 05:37:27;;;;;;;5.25;4.80;;;;;;;24.71;64.91;98985.42;1739972;81;21080;-56
2021/08/01 05:39:53;;;;;;;5.87;4.58;;;;;;;24.80;64.95;98979.69;1737026;80;21422;-54
2021/08/01 05:42:20;;;;;;;4.40;4.00;;;;;;;24.91;64.61;98975.69;1742596;80;22275;-55
2021/08/01 05:44:46;;;;;;;4.90;4.33;;;;;;;25.02;64.45;98978.50;1735277;81;21154;-56
2021/08/01 05:47:13;;;;;;;7.33;3.90;;;;;;;25.13;64.20;98980.83;1753381;80;21128;-55
2021/08/01 05:49:39;;;;;;;3.87;3.58;;;;;;;25.23;63.50;98980.92;1740114;81;21034;-54
2021/08/01 05:52:06;;;;;;;5.33;4.62;;;;;;;25.34;63.12;98978.25;1743816;81;21534;-53
2021/08/01 05:54:32;;;;;;;16.00;6.28;;;;;;;25.45;63.04;98985.18;1740824;81;21062;-55
2021/08/01 05:56:59;;;;;;;6.45;4.67;;;;;;;25.54;62.62;98986.30;1738205;81;22418;-53
2021/08/01 05:59:25;;;;;;;10.82;4.50;;;;;;;25.62;62.00;98988.14;1740308;80;21523;-56
2021/08/01 06:01:52;;;;;;;4.75;4.20;;;;;;;25.70;62.15;98989.42;1737698;81;21065;-53
2021/08/01 06:04:18;;;;;;;4.05;3.85;;;;;;;25.76;61.95;98992.83;1739682;80;21069;-54
2021/08/01 06:06:45;;;;;;;5.95;4.58;;;;;;;25.83;61.64;98997.92;1740594;81;21693;-55
2021/08/01 06:09:12;;;;;;;5.83;3.98;;;;;;;25.89;61.91;98994.39;1735281;81;22585;-55
2021/08/01 06:11:38;;;;;;;11.93;5.67;;;;;;;25.95;61.52;98997.75;1717119;81;21066;-55
2021/08/01 06:14:06;;;;;;;5.78;4.72;;;;;;;26.02;61.23;98999.25;1742159;81;21337;-56
2021/08/01 06:16:34;;;;;;;3.15;2.95;;;;;;;26.08;60.94;98993.48;1743045;80;21608;-53
2021/08/01 06:19:02;;;;;;;4.15;3.95;;;;;;;26.14;60.74;99010.64;1732870;80;21058;-55
2021/08/01 06:21:29;;;;;;;3.37;2.85;;;;;;;26.21;61.06;99009.68;1758300;79;21145;-56
2021/08/01 06:23:55;;;;;;;10.75;3.92;;;;;;;26.28;60.62;99005.17;1758081;79;21084;-55
2021/08/01 06:26:22;;;;;;;6.67;4.10;;;;;;;26.34;60.05;98997.49;1737064;80;21106;-56
2021/08/01 06:28:49;;;;;;;4.12;3.58;;;;;;;26.41;60.13;98993.95;1738471;80;21093;-57
2021/08/01 06:31:15;;;;;;;4.30;4.00;;;;;;;26.47;60.21;99000.07;1763759;79;21437;-53
2021/08/01 06:33:43;;;;;;;7.40;4.08;;;;;;;26.53;60.17;98993.28;1764087;79;22440;-55
2021/08/01 06:36:11;;;;;;;5.25;4.28;;;;;;;26.60;59.93;98997.48;1763195;79;21045;-58
2021/08/01 06:38:39;;;;;;;4.33;3.45;;;;;;;26.65;59.59;99004.64;1763341;79;21440;-57
2021/08/01 06:41:05;;;;;;;4.33;4.03;;;;;;;26.68;59.33;98996.84;1761875;79;21047;-55
2021/08/01 06:43:32;;;;;;;4.03;3.58;;;;;;;26.73;59.00;98997.63;1765149;79;21100;-56
2021/08/01 06:45:58;;;;;;;4.40;3.75;;;;;;;26.77;59.67;99001.72;1737944;80;21072;-55
2021/08/01 06:48:25;;;;;;;3.83;3.55;;;;;;;26.80;59.37;99002.69;1733683;81;22179;-54
2021/08/01 06:50:52;;;;;;;3.90;3.27;;;;;;;26.85;59.59;99000.73;1735244;81;21041;-55
2021/08/01 06:53:19;;;;;;;5.30;4.12;;;;;;;26.90;59.37;99000.47;1761119;79;21120;-56
2021/08/01 06:55:45;;;;;;;4.40;3.42;;;;;;;26.98;59.51;98996.23;1727498;81;21073;-54
2021/08/01 06:58:11;;;;;;;3.55;3.00;;;;;;;27.07;59.68;99003.86;1744815;80;21228;-54
2021/08/01 07:00:37;;;;;;;8.73;3.92;;;;;;;27.16;59.04;99008.20;1745297;81;21517;-51
2021/08/01 07:03:04;;;;;;;4.80;3.95;;;;;;;27.26;58.90;99017.02;1745174;81;21084;-55
2021/08/01 07:05:31;;;;;;;4.25;3.95;;;;;;;27.33;58.42;99015.69;1731418;81;21052;-53
2021/08/01 07:07:57;;;;;;;5.72;4.40;;;;;;;27.40;58.00;99005.02;1728344;81;21087;-57
2021/08/01 07:10:24;;;;;;;6.58;5.33;;;;;;;27.49;57.86;99012.64;1705701;81;21119;-53
2021/08/01 07:12:50;;;;;;;6.65;4.15;;;;;;;27.55;58.15;99014.66;1715903;81;21135;-56
2021/08/01 07:15:20;;;;;;;7.83;5.17;;;;;;;27.61;59.17;99015.23;1720375;81;21041;-57
2021/08/01 07:17:47;;;;;;;4.30;4.05;;;;;;;27.63;59.17;99010.37;1739734;80;21674;-55
2021/08/01 07:20:13;;;;;;;5.70;4.72;;;;;;;27.64;58.93;99005.69;1714337;81;21506;-55
2021/08/01 07:22:41;;;;;;;7.30;4.12;;;;;;;27.67;58.51;99013.04;1748162;80;22302;-57
2021/08/01 07:25:08;;;;;;;5.20;4.53;;;;;;;27.66;58.19;99016.85;1727030;81;21037;-59
2021/08/01 07:27:35;;;;;;;7.33;5.25;;;;;;;27.67;58.82;99017.71;1723507;81;21127;-55
2021/08/01 07:30:01;;;;;;;4.55;4.25;;;;;;;27.67;58.73;99013.04;1713137;81;21124;-60
2021/08/01 07:32:27;;;;;;;5.47;4.78;;;;;;;27.71;58.46;99006.59;1746977;80;21080;-58
2021/08/01 07:34:54;;;;;;;6.85;4.00;;;;;;;27.73;58.71;99002.55;1740321;80;21152;-58
2021/08/01 07:37:20;;;;;;;5.62;4.20;;;;;;;27.78;58.79;99003.34;1725118;81;21127;-58
2021/08/01 07:39:46;;;;;;;6.03;5.45;;;;;;;27.84;58.45;98999.76;1726861;81;21025;-59
2021/08/01 07:42:14;;;;;;;4.72;4.15;;;;;;;27.85;57.58;99000.95;1733740;81;21421;-55
2021/08/01 07:44:55;;;;;;;4.85;4.45;;;;;;;27.88;57.91;98995.55;1729529;81;21545;-59
2021/08/01 07:47:23;;;;;;;5.08;4.67;;;;;;;27.94;57.99;98998.88;1730809;81;21200;-57
2021/08/01 07:49:50;;;;;;;9.98;5.78;;;;;;;28.03;57.01;98996.80;1730451;81;21101;-58
2021/08/01 07:52:17;;;;;;;7.70;3.98;;;;;;;28.04;57.15;98991.06;1729313;81;21082;-58
2021/08/01 07:54:44;;;;;;;4.22;4.03;;;;;;;28.05;57.10;98984.48;1726519;81;20929;-58
2021/08/01 07:57:30;;;;;;;5.50;4.28;;;;;;;28.02;56.58;98979.34;1730793;81;21087;-58
2021/08/01 07:59:58;;;;;;;4.12;3.83;;;;;;;28.01;56.69;98977.63;1726833;81;23295;-56
2021/08/01 08:02:26;;;;;;;4.28;3.75;;;;;;;28.02;57.17;98979.87;1725934;81;21237;-56
2021/08/01 08:04:52;;;;;;;4.25;3.90;;;;;;;28.06;57.67;98976.52;1732226;81;21664;-58
2021/08/01 08:07:19;;;;;;;6.28;3.85;;;;;;;28.14;57.71;98986.55;1738706;81;21118;-58
2021/08/01 08:09:45;;;;;;;6.97;3.83;;;;;;;28.19;56.94;98986.81;1738945;81;21369;-59
2021/08/01 08:12:12;;;;;;;4.35;3.85;;;;;;;28.21;55.87;98985.55;1739764;81;22179;-58
2021/08/01 08:14:38;;;;;;;5.75;4.53;;;;;;;28.26;56.13;98989.60;1736666;81;22015;-58
2021/08/01 08:17:05;;;;;;;6.72;3.92;;;;;;;28.29;55.77;98988.67;1737454;81;21034;-58
2021/08/01 08:19:31;;;;;;;4.10;3.72;;;;;;;28.37;56.09;98989.03;1737746;80;21132;-56
2021/08/01 08:21:58;;;;;;;8.50;3.90;;;;;;;28.43;56.50;98987.66;1761681;79;21094;-58
2021/08/01 08:24:25;;;;;;;8.40;4.42;;;;;;;28.51;56.45;98986.63;1764666;79;21670;-55
2021/08/01 08:26:51;;;;;;;9.03;4.05;;;;;;;28.58;55.96;98993.07;1743308;80;21081;-56
2021/08/01 08:29:18;;;;;;;4.47;4.00;;;;;;;28.59;55.19;98994.75;1740992;80;21117;-57
2021/08/01 08:31:49;;;;;;;6.03;3.92;;;;;;;28.61;55.25;98994.02;1747388;80;21045;-57
2021/08/01 08:34:14;;;;;;;5.83;4.35;;;;;;;28.59;55.16;98997.52;1768996;78;20979;-56
2021/08/01 08:36:40;;;;;;;5.05;4.65;;;;;;;28.59;55.56;98996.13;1732160;81;21616;-58
2021/08/01 08:39:06;;;;;;;4.95;4.42;;;;;;;28.62;55.53;98994.34;1743186;80;21128;-58
2021/08/01 08:41:33;;;;;;;3.83;3.25;;;;;;;28.64;55.95;99001.92;1734522;81;21078;-57
2021/08/01 08:43:59;;;;;;;6.47;4.05;;;;;;;28.66;55.78;98996.18;1738908;81;21489;-57
2021/08/01 08:46:26;;;;;;;7.47;4.25;;;;;;;28.68;55.59;99004.58;1741046;80;21821;-58
2021/08/01 08:48:53;;;;;;;6.65;3.47;;;;;;;28.73;55.31;99003.97;1737422;79;21505;-60
2021/08/01 08:51:19;;;;;;;7.03;4.10;;;;;;;28.76;55.18;99010.45;1759477;79;21033;-57
2021/08/01 08:53:49;;;;;;;4.58;3.95;;;;;;;28.76;55.48;99008.58;1762943;79;21112;-60
2021/08/01 08:56:16;;;;;;;4.35;3.33;;;;;;;28.77;55.00;99014.44;1746221;80;21542;-59
2021/08/01 08:58:43;;;;;;;6.03;3.77;;;;;;;28.76;55.36;99017.38;1727748;81;21572;-58
2021/08/01 09:01:09;;;;;;;6.72;4.08;;;;;;;28.73;55.64;99021.97;1709200;81;22295;-57
2021/08/01 09:03:37;;;;;;;6.95;4.83;;;;;;;28.71;56.16;99033.25;1739955;81;21020;-57
2021/08/01 09:06:04;;;;;;;6.70;6.10;;;;;;;28.62;58.30;99034.49;1722157;81;21080;-56
2021/08/01 09:08:31;;;;;;;6.78;4.65;;;;;;;28.39;60.18;99039.50;1717947;82;21088;-57
2021/08/01 09:10:58;;;;;;;8.10;4.67;;;;;;;28.13;61.50;99043.80;1720768;82;21097;-59
2021/08/01 09:13:46;;;;;;;6.25;5.37;;;;;;;27.90;62.33;99040.45;1721405;82;22653;-58
2021/08/01 09:16:16;;;;;;;11.35;5.28;;;;;;;27.73;63.31;99037.67;1716168;82;21081;-59
2021/08/01 09:18:45;;;;;;;6.80;4.45;;;;;;;27.54;65.76;99041.97;1721509;81;21009;-60
2021/08/01 09:21:29;;;;;;;8.20;5.10;;;;;;;27.40;66.28;99031.27;1717014;82;21164;-59
2021/08/01 09:23:56;;;;;;;9.73;5.22;;;;;;;27.29;66.59;99032.36;1720445;82;20949;-57
2021/08/01 09:26:22;;;;;;;7.33;5.25;;;;;;;27.19;67.32;99036.83;1721132;82;22186;-57
2021/08/01 09:29:02;;;;;;;8.18;6.28;;;;;;;27.14;68.88;99023.28;1720598;82;21609;-57
2021/08/01 09:31:29;;;;;;;8.73;4.80;;;;;;;27.07;69.18;99025.44;1719401;82;21001;-55
2021/08/01 09:33:56;;;;;;;9.55;5.53;;;;;;;27.02;69.75;99027.95;1719732;82;21520;-57
2021/08/01 09:36:25;;;;;;;6.25;5.62;;;;;;;26.98;70.65;99021.09;1717847;82;21152;-59
2021/08/01 09:38:56;;;;;;;9.48;5.22;;;;;;;26.95;71.03;99027.02;1721315;82;21192;-57
2021/08/01 09:41:35;;;;;;;7.22;5.42;;;;;;;26.94;71.50;99025.83;1717815;82;21092;-59
2021/08/01 09:44:04;;;;;;;8.55;4.95;;;;;;;26.94;72.22;99025.83;1716721;82;21064;-57
2021/08/01 09:49:29;;;;;;;7.67;6.97;;;;;;;27.06;73.65;99017.34;1790335;77;23223;-55
2021/08/01 09:51:59;;;;;;;8.43;7.47;;;;;;;27.05;74.14;99032.23;1757591;79;21021;-58
2021/08/01 09:54:29;;;;;;;7.35;6.65;;;;;;;27.08;74.64;99027.14;1760509;79;21388;-57
2021/08/01 09:57:00;;;;;;;7.83;5.78;;;;;;;27.12;74.80;99022.09;1758701;79;21538;-57
2021/08/01 09:59:29;;;;;;;6.50;6.00;;;;;;;27.15;74.87;99027.20;1763955;79;21808;-56
2021/08/01 10:02:03;;;;;;;7.50;6.78;;;;;;;27.22;75.55;99023.98;1763101;79;21580;-57
2021/08/01 10:04:34;;;;;;;6.37;5.87;;;;;;;27.26;75.40;99023.07;1761293;79;21490;-58
2021/08/01 10:07:06;;;;;;;5.45;5.08;;;;;;;27.33;75.09;99018.45;1763296;79;20966;-55
2021/08/01 10:09:33;;;;;;;5.20;4.75;;;;;;;27.39;74.34;99011.59;1766369;79;20871;-56
2021/08/01 10:12:00;;;;;;;5.20;4.80;;;;;;;27.43;73.49;99012.06;1762817;79;21001;-56
2021/08/01 10:14:27;;;;;;;4.10;3.67;;;;;;;27.51;73.81;99006.39;1726683;81;20946;-55
2021/08/01 10:16:56;;;;;;;4.00;3.70;;;;;;;27.58;73.95;99014.23;1702154;82;20965;-56
2021/08/01 10:19:22;;;;;;;5.05;4.62;;;;;;;27.62;72.31;99002.27;1710891;81;21766;-55
2021/08/01 10:21:50;;;;;;;5.17;4.60;;;;;;;27.67;71.73;99001.98;1710775;81;21093;-58
2021/08/01 10:24:26;;;;;;;5.25;4.75;;;;;;;27.71;71.31;99001.92;1714262;81;20879;-55
2021/08/01 10:26:54;;;;;;;5.25;4.78;;;;;;;27.74;71.04;99005.64;1710521;81;21087;-57
2021/08/01 10:29:45;;;;;;;4.83;4.28;;;;;;;27.75;70.53;99007.36;1707977;81;21121;-55
2021/08/01 10:32:13;;;;;;;3.37;3.17;;;;;;;27.75;68.84;99000.97;1703432;82;21169;-56
2021/08/01 10:34:49;;;;;;;3.95;3.47;;;;;;;27.74;68.09;99011.70;1684117;83;20913;-55
2021/08/01 10:37:33;;;;;;;4.75;4.45;;;;;;;27.73;68.09;99014.16;1683615;83;20973;-56
2021/08/01 10:40:06;;;;;;;;;;;;;;;27.72;69.51;99013.31;1687590;82;20951;-56
2021/08/01 10:42:33;;;;;;;4.22;3.83;;;;;;;27.72;70.65;99016.59;1682525;83;20411;-58
2021/08/01 10:45:00;;;;;;;4.55;4.25;;;;;;;27.69;71.09;99007.31;1706643;82;21411;-57
2021/08/01 10:47:26;;;;;;;7.45;5.20;;;;;;;27.68;71.68;99003.69;1706183;82;21740;-56
2021/08/01 10:49:54;;;;;;;3.65;3.20;;;;;;;27.69;71.91;99014.22;1731424;80;21507;-57
2021/08/01 10:52:20;;;;;;;4.62;4.08;;;;;;;27.68;72.16;99023.57;1723599;80;21583;-55
2021/08/01 10:54:59;;;;;;;5.60;5.10;;;;;;;27.67;71.84;99022.72;1730538;80;21085;-55
2021/08/01 10:57:26;;;;;;;4.62;4.42;;;;;;;27.66;71.66;99021.00;1732490;82;21062;-55
2021/08/01 11:00:00;;;;;;;9.05;5.83;;;;;;;27.65;71.20;99016.52;1717401;80;21160;-55
2021/08/01 11:02:28;;;;;;;5.33;4.92;;;;;;;27.62;70.81;99016.95;1718874;80;21077;-57
2021/08/01 11:04:55;;;;;;;5.05;4.58;;;;;;;27.59;70.56;99010.42;1718453;80;21346;-57
2021/08/01 11:07:33;;;;;;;3.40;3.10;;;;;;;27.58;70.88;99010.09;1724703;80;21563;-56
2021/08/01 11:10:15;;;;;;;4.35;4.05;;;;;;;27.54;69.89;99007.95;1719551;80;21483;-55
2021/08/01 11:12:45;;;;;;;4.22;3.85;;;;;;;27.47;69.59;99000.43;1718662;80;20859;-57
2021/08/01 11:15:15;;;;;;;6.25;4.60;;;;;;;27.41;69.46;98999.83;1725845;80;21336;-55
2021/08/01 11:17:48;;;;;;;7.15;4.53;;;;;;;27.36;69.31;98989.91;1731651;80;21811;-56
2021/08/01 11:20:26;;;;;;;5.55;5.08;;;;;;;27.32;69.12;98991.88;1725648;80;20971;-56
2021/08/01 11:22:53;;;;;;;5.47;5.08;;;;;;;27.27;69.21;98992.48;1723052;80;21787;-56
2021/08/01 11:25:34;;;;;;;4.35;3.98;;;;;;;27.22;69.28;98984.48;1720961;80;20946;-56
2021/08/01 11:28:19;;;;;;;6.45;4.20;;;;;;;27.18;69.78;98989.53;1721180;80;20903;-55
2021/08/01 11:31:01;;;;;;;4.58;4.12;;;;;;;27.16;70.11;98993.53;1723294;80;21812;-57
2021/08/01 11:33:40;;;;;;;5.20;4.65;;;;;;;27.13;70.36;98982.38;1723892;80;20939;-56
2021/08/01 11:36:16;;;;;;;5.37;4.62;;;;;;;27.13;70.72;98987.91;1711987;80;20867;-55
2021/08/01 11:38:55;;;;;;;8.43;5.40;;;;;;;27.13;70.98;98983.76;1721155;80;21365;-56
2021/08/01 11:41:33;;;;;;;5.22;4.80;;;;;;;27.14;71.29;98980.47;1729749;80;21355;-54
2021/08/01 11:44:16;;;;;;;4.53;3.08;;;;;;;27.16;71.21;98977.81;1720271;80;20927;-57
2021/08/01 11:47:04;;;;;;;4.42;4.03;;;;;;;27.18;70.55;98977.09;1721651;80;21420;-56
2021/08/01 11:49:44;;;;;;;7.95;4.10;;;;;;;27.21;69.96;98970.33;1717969;80;21346;-54